LGX37B LSZB-LFKJ
Flight info
| Callsign | LGX37B |
|---|---|
| Flight time | 1h 5m |
| Altitude | 34000 |
| Route | MONIN Z119 SOSON DCT ODINA DCT SRN DCT OTMUV DCT OLETI DCT TORTU DCT BEBEV |
| Aircraft | B38M/M-SDE1FGHILORVWXY/HB1 |
Departure
| Time | 2026-05-06 14:55 |
|---|---|
| Airport | Bern Airport (LSZB) |
Arrival
| Time | 2026-05-06 16:00 |
|---|---|
| Airport | Ajaccio Napoléon Bonaparte airport (LFKJ) |
| Time | Latitude | Longitude | Altitude | Speed | Heading |
|---|---|---|---|---|---|
| 2026-05-06 14:44 | 46.91271 | 7.50117 | 1683 ft | 0 kts | 90° |
| 2026-05-06 14:51 | 46.91245 | 7.50125 | 1684 ft | 6 kts | 225° |
| 2026-05-06 14:52 | 46.91265 | 7.50047 | 1689 ft | 10 kts | 304° |
| 2026-05-06 14:52 | 46.91230 | 7.49958 | 1683 ft | 18 kts | 176° |
| 2026-05-06 14:52 | 46.91103 | 7.50097 | 1685 ft | 24 kts | 136° |
| 2026-05-06 14:52 | 46.90976 | 7.50247 | 1682 ft | 24 kts | 141° |
| 2026-05-06 14:53 | 46.90845 | 7.50406 | 1686 ft | 24 kts | 140° |
| 2026-05-06 14:53 | 46.90760 | 7.50512 | 1678 ft | 22 kts | 129° |
| 2026-05-06 14:53 | 46.90718 | 7.50545 | 1684 ft | 1 kts | 302° |
| 2026-05-06 14:53 | 46.90724 | 7.50544 | 1679 ft | 0 kts | 339° |
| 2026-05-06 14:54 | 46.90785 | 7.50484 | 1687 ft | 38 kts | 322° |
| 2026-05-06 14:54 | 46.91176 | 7.50002 | 1684 ft | 108 kts | 319° |
| 2026-05-06 14:54 | 46.91901 | 7.49106 | 1793 ft | 154 kts | 319° |
| 2026-05-06 14:55 | 46.92747 | 7.48080 | 2494 ft | 165 kts | 321° |
| 2026-05-06 14:55 | 46.93687 | 7.46977 | 3182 ft | 181 kts | 322° |
| 2026-05-06 14:55 | 46.94910 | 7.46346 | 3855 ft | 197 kts | 2° |
| 2026-05-06 14:55 | 46.96177 | 7.47149 | 4509 ft | 211 kts | 46° |
| 2026-05-06 14:56 | 46.96772 | 7.49136 | 5284 ft | 223 kts | 88° |
| 2026-05-06 14:56 | 46.96332 | 7.51331 | 6057 ft | 235 kts | 127° |
| 2026-05-06 14:56 | 46.95118 | 7.53017 | 6816 ft | 249 kts | 141° |
| 2026-05-06 14:56 | 46.93726 | 7.54680 | 7507 ft | 267 kts | 141° |
| 2026-05-06 14:57 | 46.92325 | 7.56572 | 8294 ft | 279 kts | 133° |
| 2026-05-06 14:57 | 46.91059 | 7.58774 | 9253 ft | 285 kts | 128° |
| 2026-05-06 14:57 | 46.89849 | 7.61100 | 10219 ft | 290 kts | 128° |
| 2026-05-06 14:57 | 46.88575 | 7.63509 | 10815 ft | 308 kts | 129° |
| 2026-05-06 14:58 | 46.87180 | 7.66010 | 11348 ft | 326 kts | 131° |
| 2026-05-06 14:58 | 46.85682 | 7.68616 | 11829 ft | 343 kts | 131° |
| 2026-05-06 14:58 | 46.84106 | 7.71346 | 12306 ft | 360 kts | 131° |
| 2026-05-06 14:58 | 46.82488 | 7.74179 | 13059 ft | 367 kts | 131° |
| 2026-05-06 14:59 | 46.80850 | 7.77071 | 13875 ft | 371 kts | 131° |
| 2026-05-06 14:59 | 46.79200 | 7.79990 | 14671 ft | 376 kts | 131° |
| 2026-05-06 14:59 | 46.77518 | 7.82948 | 15435 ft | 380 kts | 131° |
| 2026-05-06 14:59 | 46.75839 | 7.85889 | 16143 ft | 384 kts | 131° |
| 2026-05-06 15:00 | 46.74118 | 7.88894 | 16850 ft | 388 kts | 131° |
| 2026-05-06 15:00 | 46.72360 | 7.91902 | 17537 ft | 392 kts | 136° |
| 2026-05-06 15:00 | 46.70326 | 7.94555 | 18207 ft | 394 kts | 141° |
| 2026-05-06 15:00 | 46.68244 | 7.97167 | 18797 ft | 397 kts | 141° |
| 2026-05-06 15:01 | 46.66116 | 7.99758 | 19418 ft | 400 kts | 142° |
| 2026-05-06 15:01 | 46.63953 | 8.02351 | 20001 ft | 404 kts | 143° |
| 2026-05-06 15:01 | 46.61773 | 8.04968 | 20574 ft | 408 kts | 143° |
| 2026-05-06 15:01 | 46.59580 | 8.07621 | 21139 ft | 412 kts | 142° |
| 2026-05-06 15:02 | 46.57375 | 8.10305 | 21674 ft | 416 kts | 142° |
| 2026-05-06 15:02 | 46.55139 | 8.13023 | 22199 ft | 419 kts | 143° |
| 2026-05-06 15:02 | 46.52892 | 8.15745 | 22658 ft | 423 kts | 143° |
| 2026-05-06 15:02 | 46.50617 | 8.18488 | 23149 ft | 426 kts | 143° |
| 2026-05-06 15:03 | 46.48323 | 8.21246 | 23598 ft | 430 kts | 143° |
| 2026-05-06 15:03 | 46.46015 | 8.24023 | 24058 ft | 433 kts | 144° |
| 2026-05-06 15:03 | 46.43681 | 8.26832 | 24510 ft | 436 kts | 144° |
| 2026-05-06 15:03 | 46.41343 | 8.29647 | 24978 ft | 438 kts | 143° |
| 2026-05-06 15:04 | 46.38988 | 8.32479 | 25431 ft | 441 kts | 144° |
| 2026-05-06 15:04 | 46.36647 | 8.35285 | 25853 ft | 444 kts | 144° |
| 2026-05-06 15:04 | 46.34263 | 8.38138 | 26290 ft | 446 kts | 144° |
| 2026-05-06 15:04 | 46.31860 | 8.41008 | 26679 ft | 449 kts | 144° |
| 2026-05-06 15:05 | 46.29449 | 8.43888 | 27073 ft | 451 kts | 144° |
| 2026-05-06 15:05 | 46.27029 | 8.46780 | 27462 ft | 453 kts | 144° |
| 2026-05-06 15:05 | 46.24591 | 8.49689 | 27833 ft | 455 kts | 144° |
| 2026-05-06 15:05 | 46.22145 | 8.52604 | 28177 ft | 457 kts | 144° |
| 2026-05-06 15:06 | 46.19689 | 8.55524 | 28546 ft | 459 kts | 144° |
| 2026-05-06 15:06 | 46.17222 | 8.58453 | 28905 ft | 461 kts | 144° |
| 2026-05-06 15:06 | 46.14739 | 8.61397 | 29242 ft | 463 kts | 144° |
| 2026-05-06 15:06 | 46.12252 | 8.64345 | 29717 ft | 461 kts | 144° |
| 2026-05-06 15:07 | 46.09675 | 8.67043 | 30179 ft | 455 kts | 153° |
| 2026-05-06 15:07 | 46.06924 | 8.69264 | 30617 ft | 452 kts | 155° |
| 2026-05-06 15:07 | 46.04171 | 8.71436 | 31028 ft | 451 kts | 155° |
| 2026-05-06 15:07 | 46.01411 | 8.73584 | 31438 ft | 450 kts | 155° |
| 2026-05-06 15:08 | 45.98663 | 8.75717 | 31855 ft | 449 kts | 156° |
| 2026-05-06 15:08 | 45.95916 | 8.77855 | 32234 ft | 449 kts | 155° |
| 2026-05-06 15:08 | 45.93171 | 8.80002 | 32642 ft | 448 kts | 155° |
| 2026-05-06 15:08 | 45.90473 | 8.82112 | 32972 ft | 447 kts | 155° |
| 2026-05-06 15:09 | 45.87743 | 8.84240 | 33383 ft | 446 kts | 155° |
| 2026-05-06 15:09 | 45.85017 | 8.86358 | 33769 ft | 445 kts | 155° |
| 2026-05-06 15:09 | 45.82281 | 8.88478 | 33852 ft | 449 kts | 155° |
| 2026-05-06 15:10 | 45.76769 | 8.92753 | 33863 ft | 451 kts | 155° |
| 2026-05-06 15:10 | 45.71272 | 8.97007 | 33861 ft | 447 kts | 156° |
| 2026-05-06 15:11 | 45.65741 | 9.00943 | 33862 ft | 439 kts | 165° |
| 2026-05-06 15:11 | 45.59814 | 9.02292 | 33857 ft | 430 kts | 181° |
| 2026-05-06 15:11 | 45.56852 | 9.02380 | 34217 ft | 422 kts | 182° |
| 2026-05-06 15:12 | 45.53942 | 9.02430 | 34596 ft | 415 kts | 182° |
| 2026-05-06 15:12 | 45.51057 | 9.02472 | 34716 ft | 417 kts | 182° |
| 2026-05-06 15:12 | 45.48135 | 9.02527 | 34815 ft | 423 kts | 182° |
| 2026-05-06 15:13 | 45.42164 | 9.02679 | 34819 ft | 433 kts | 181° |
| 2026-05-06 15:13 | 45.36116 | 9.02826 | 34834 ft | 436 kts | 182° |
| 2026-05-06 15:14 | 45.30034 | 9.02960 | 34836 ft | 437 kts | 182° |
| 2026-05-06 15:14 | 45.24014 | 9.03102 | 34835 ft | 434 kts | 182° |
| 2026-05-06 15:15 | 45.17951 | 9.03242 | 34834 ft | 436 kts | 182° |
| 2026-05-06 15:15 | 45.11886 | 9.03380 | 34839 ft | 435 kts | 182° |
| 2026-05-06 15:16 | 45.05831 | 9.03521 | 34840 ft | 434 kts | 182° |
| 2026-05-06 15:16 | 44.99768 | 9.03659 | 34844 ft | 436 kts | 182° |
| 2026-05-06 15:17 | 44.93711 | 9.03796 | 34846 ft | 435 kts | 182° |
| 2026-05-06 15:17 | 44.87650 | 9.03937 | 34853 ft | 435 kts | 182° |
| 2026-05-06 15:18 | 44.81592 | 9.04074 | 34875 ft | 436 kts | 182° |
| 2026-05-06 15:18 | 44.75521 | 9.04212 | 34888 ft | 436 kts | 182° |
| 2026-05-06 15:19 | 44.69486 | 9.04349 | 34863 ft | 437 kts | 182° |
| 2026-05-06 15:19 | 44.63424 | 9.04484 | 34867 ft | 436 kts | 182° |
| 2026-05-06 15:20 | 44.57346 | 9.04622 | 34889 ft | 438 kts | 182° |
| 2026-05-06 15:20 | 44.51241 | 9.04761 | 34894 ft | 439 kts | 182° |
| 2026-05-06 15:21 | 44.45111 | 9.04897 | 34901 ft | 441 kts | 182° |
| 2026-05-06 15:21 | 44.38956 | 9.05036 | 34901 ft | 443 kts | 182° |
| 2026-05-06 15:22 | 44.32819 | 9.05174 | 34899 ft | 445 kts | 182° |
| 2026-05-06 15:22 | 44.26625 | 9.05313 | 34892 ft | 445 kts | 182° |
| 2026-05-06 15:23 | 44.20433 | 9.05452 | 34895 ft | 444 kts | 182° |
| 2026-05-06 15:23 | 44.14295 | 9.04855 | 34908 ft | 441 kts | 187° |
| 2026-05-06 15:24 | 44.08179 | 9.04117 | 34909 ft | 441 kts | 187° |
| 2026-05-06 15:24 | 44.02103 | 9.03379 | 34905 ft | 441 kts | 187° |
| 2026-05-06 15:25 | 43.95945 | 9.02647 | 34910 ft | 441 kts | 187° |
| 2026-05-06 15:25 | 43.89819 | 9.01911 | 34840 ft | 443 kts | 187° |
| 2026-05-06 15:25 | 43.86741 | 9.01543 | 34405 ft | 444 kts | 187° |
| 2026-05-06 15:26 | 43.83701 | 9.01182 | 33738 ft | 441 kts | 187° |
| 2026-05-06 15:26 | 43.80668 | 9.00823 | 33196 ft | 435 kts | 187° |
| 2026-05-06 15:26 | 43.77670 | 9.00467 | 32643 ft | 429 kts | 188° |
| 2026-05-06 15:26 | 43.74706 | 9.00111 | 32035 ft | 426 kts | 188° |
| 2026-05-06 15:27 | 43.71754 | 8.99755 | 31306 ft | 425 kts | 188° |
| 2026-05-06 15:27 | 43.68793 | 8.99397 | 30557 ft | 430 kts | 188° |
| 2026-05-06 15:27 | 43.65793 | 8.99035 | 29806 ft | 435 kts | 188° |
| 2026-05-06 15:27 | 43.62777 | 8.98676 | 29062 ft | 436 kts | 187° |
| 2026-05-06 15:28 | 43.59740 | 8.98316 | 28315 ft | 440 kts | 187° |
| 2026-05-06 15:28 | 43.56685 | 8.97953 | 27573 ft | 443 kts | 187° |
| 2026-05-06 15:28 | 43.53610 | 8.97587 | 26826 ft | 444 kts | 187° |
| 2026-05-06 15:28 | 43.50523 | 8.97220 | 26079 ft | 447 kts | 187° |
| 2026-05-06 15:29 | 43.47416 | 8.96850 | 25317 ft | 449 kts | 187° |
| 2026-05-06 15:29 | 43.44304 | 8.96482 | 24567 ft | 449 kts | 187° |
| 2026-05-06 15:29 | 43.41190 | 8.96113 | 24070 ft | 454 kts | 187° |
| 2026-05-06 15:29 | 43.38075 | 8.95424 | 23619 ft | 449 kts | 196° |
| 2026-05-06 15:30 | 43.35146 | 8.94184 | 23339 ft | 438 kts | 199° |
| 2026-05-06 15:30 | 43.32210 | 8.92894 | 23093 ft | 445 kts | 199° |
| 2026-05-06 15:30 | 43.29287 | 8.91590 | 22840 ft | 439 kts | 199° |
| 2026-05-06 15:30 | 43.26419 | 8.90304 | 22594 ft | 440 kts | 199° |
| 2026-05-06 15:31 | 43.23509 | 8.89003 | 22346 ft | 437 kts | 199° |
| 2026-05-06 15:31 | 43.20612 | 8.87717 | 22091 ft | 437 kts | 199° |
| 2026-05-06 15:31 | 43.17720 | 8.86439 | 21839 ft | 435 kts | 199° |
| 2026-05-06 15:32 | 43.11972 | 8.83896 | 21338 ft | 432 kts | 199° |
| 2026-05-06 15:32 | 43.09118 | 8.82633 | 21088 ft | 431 kts | 199° |
| 2026-05-06 15:32 | 43.06269 | 8.81373 | 20837 ft | 429 kts | 199° |
| 2026-05-06 15:32 | 43.03433 | 8.80122 | 20588 ft | 428 kts | 199° |
| 2026-05-06 15:33 | 43.00598 | 8.78870 | 20338 ft | 427 kts | 199° |
| 2026-05-06 15:33 | 42.97778 | 8.77628 | 20087 ft | 425 kts | 199° |
| 2026-05-06 15:33 | 42.94964 | 8.76391 | 19837 ft | 424 kts | 199° |
| 2026-05-06 15:33 | 42.92160 | 8.75159 | 19583 ft | 422 kts | 199° |
| 2026-05-06 15:34 | 42.89374 | 8.73934 | 19333 ft | 421 kts | 199° |
| 2026-05-06 15:34 | 42.86584 | 8.72709 | 19086 ft | 419 kts | 199° |
| 2026-05-06 15:34 | 42.83813 | 8.71494 | 18844 ft | 418 kts | 199° |
| 2026-05-06 15:34 | 42.81038 | 8.70279 | 18583 ft | 417 kts | 199° |
| 2026-05-06 15:35 | 42.78286 | 8.69076 | 18332 ft | 415 kts | 199° |
| 2026-05-06 15:35 | 42.75541 | 8.67876 | 17941 ft | 415 kts | 199° |
| 2026-05-06 15:35 | 42.72777 | 8.66667 | 17187 ft | 413 kts | 199° |
| 2026-05-06 15:35 | 42.70116 | 8.65508 | 16276 ft | 397 kts | 199° |
| 2026-05-06 15:36 | 42.67513 | 8.64377 | 15161 ft | 389 kts | 199° |
| 2026-05-06 15:36 | 42.64952 | 8.63259 | 14016 ft | 384 kts | 199° |
| 2026-05-06 15:36 | 42.62427 | 8.62158 | 12872 ft | 379 kts | 199° |
| 2026-05-06 15:36 | 42.59967 | 8.61087 | 11749 ft | 374 kts | 199° |
| 2026-05-06 15:37 | 42.57499 | 8.60015 | 10618 ft | 369 kts | 199° |
| 2026-05-06 15:37 | 42.55062 | 8.58957 | 9500 ft | 366 kts | 198° |
| 2026-05-06 15:37 | 42.52691 | 8.57929 | 8929 ft | 348 kts | 198° |
| 2026-05-06 15:37 | 42.50442 | 8.56954 | 8467 ft | 331 kts | 198° |
| 2026-05-06 15:38 | 42.48299 | 8.56024 | 8114 ft | 316 kts | 198° |
| 2026-05-06 15:38 | 42.46256 | 8.55141 | 7860 ft | 300 kts | 198° |
| 2026-05-06 15:38 | 42.44312 | 8.54301 | 7701 ft | 285 kts | 198° |
| 2026-05-06 15:38 | 42.42473 | 8.53507 | 7585 ft | 271 kts | 198° |
| 2026-05-06 15:39 | 42.40693 | 8.52738 | 7434 ft | 266 kts | 198° |
| 2026-05-06 15:39 | 42.38932 | 8.51978 | 7234 ft | 265 kts | 198° |
| 2026-05-06 15:39 | 42.37764 | 8.51476 | 7093 ft | 264 kts | 198° |
| 2026-05-06 15:39 | 42.36016 | 8.50722 | 6878 ft | 263 kts | 198° |
| 2026-05-06 15:40 | 42.34270 | 8.49967 | 6636 ft | 262 kts | 198° |
| 2026-05-06 15:40 | 42.32527 | 8.49214 | 6397 ft | 262 kts | 198° |
| 2026-05-06 15:40 | 42.30792 | 8.48468 | 6168 ft | 261 kts | 198° |
| 2026-05-06 15:40 | 42.29066 | 8.47726 | 5940 ft | 260 kts | 198° |
| 2026-05-06 15:41 | 42.27346 | 8.46985 | 5690 ft | 259 kts | 198° |
| 2026-05-06 15:41 | 42.25628 | 8.46246 | 5454 ft | 259 kts | 198° |
| 2026-05-06 15:41 | 42.23915 | 8.45509 | 5215 ft | 258 kts | 198° |
| 2026-05-06 15:41 | 42.22151 | 8.45114 | 4984 ft | 258 kts | 179° |
| 2026-05-06 15:42 | 42.20426 | 8.45590 | 4733 ft | 258 kts | 158° |
| 2026-05-06 15:42 | 42.18839 | 8.46723 | 4488 ft | 258 kts | 151° |
| 2026-05-06 15:42 | 42.17285 | 8.47934 | 4242 ft | 258 kts | 150° |
| 2026-05-06 15:42 | 42.15749 | 8.49229 | 3990 ft | 257 kts | 142° |
| 2026-05-06 15:43 | 42.14390 | 8.50744 | 3753 ft | 257 kts | 141° |
| 2026-05-06 15:43 | 42.13019 | 8.52294 | 3522 ft | 256 kts | 141° |
| 2026-05-06 15:43 | 42.11658 | 8.53833 | 3284 ft | 255 kts | 141° |
| 2026-05-06 15:43 | 42.10302 | 8.55361 | 3053 ft | 253 kts | 141° |
| 2026-05-06 15:44 | 42.08955 | 8.56873 | 3035 ft | 254 kts | 141° |
| 2026-05-06 15:44 | 42.07599 | 8.58391 | 3026 ft | 253 kts | 141° |
| 2026-05-06 15:44 | 42.06274 | 8.59880 | 3009 ft | 242 kts | 141° |
| 2026-05-06 15:44 | 42.05034 | 8.61273 | 3003 ft | 221 kts | 141° |
| 2026-05-06 15:45 | 42.03915 | 8.62533 | 3001 ft | 201 kts | 141° |
| 2026-05-06 15:45 | 42.02877 | 8.63696 | 2992 ft | 185 kts | 141° |
| 2026-05-06 15:45 | 42.01906 | 8.64780 | 3005 ft | 179 kts | 141° |
| 2026-05-06 15:45 | 42.01034 | 8.65905 | 2982 ft | 173 kts | 124° |
| 2026-05-06 15:46 | 42.00663 | 8.67422 | 3032 ft | 172 kts | 102° |
| 2026-05-06 15:46 | 42.00457 | 8.68968 | 2777 ft | 160 kts | 101° |
| 2026-05-06 15:46 | 42.00277 | 8.70382 | 2570 ft | 154 kts | 101° |
| 2026-05-06 15:46 | 42.00093 | 8.71809 | 2372 ft | 152 kts | 102° |
| 2026-05-06 15:47 | 41.99910 | 8.73232 | 2188 ft | 152 kts | 101° |
| 2026-05-06 15:47 | 41.99725 | 8.74635 | 1971 ft | 154 kts | 101° |
| 2026-05-06 15:47 | 41.99546 | 8.76022 | 1765 ft | 152 kts | 102° |
| 2026-05-06 15:47 | 41.99360 | 8.77429 | 1628 ft | 150 kts | 102° |
| 2026-05-06 15:48 | 41.99177 | 8.78831 | 1440 ft | 152 kts | 102° |
| 2026-05-06 15:48 | 41.98995 | 8.80222 | 1282 ft | 152 kts | 101° |
| 2026-05-06 15:48 | 41.98632 | 8.81517 | 1111 ft | 148 kts | 124° |
| 2026-05-06 15:48 | 41.97889 | 8.82429 | 966 ft | 145 kts | 153° |
| 2026-05-06 15:49 | 41.96907 | 8.82773 | 824 ft | 143 kts | 180° |
| 2026-05-06 15:49 | 41.95935 | 8.82481 | 674 ft | 143 kts | 206° |
| 2026-05-06 15:49 | 41.95052 | 8.81887 | 569 ft | 153 kts | 206° |
| 2026-05-06 15:49 | 41.94062 | 8.81233 | 407 ft | 164 kts | 205° |
| 2026-05-06 15:50 | 41.93075 | 8.80658 | 210 ft | 145 kts | 202° |
| 2026-05-06 15:50 | 41.92231 | 8.80195 | 267 ft | 120 kts | 202° |
| 2026-05-06 15:50 | 41.91445 | 8.79737 | 564 ft | 127 kts | 206° |
| 2026-05-06 15:50 | 41.90603 | 8.79094 | 765 ft | 157 kts | 214° |
| 2026-05-06 15:51 | 41.89777 | 8.78069 | 683 ft | 162 kts | 226° |
| 2026-05-06 15:51 | 41.88988 | 8.76917 | 1143 ft | 168 kts | 228° |
| 2026-05-06 15:51 | 41.88340 | 8.75605 | 2012 ft | 178 kts | 253° |
| 2026-05-06 15:51 | 41.88396 | 8.73898 | 2824 ft | 192 kts | 285° |
| 2026-05-06 15:52 | 41.88886 | 8.72137 | 3668 ft | 207 kts | 292° |
| 2026-05-06 15:52 | 41.89455 | 8.70337 | 4618 ft | 213 kts | 292° |
| 2026-05-06 15:52 | 41.90067 | 8.68488 | 4826 ft | 219 kts | 299° |
| 2026-05-06 15:52 | 41.91131 | 8.67108 | 4846 ft | 220 kts | 328° |
| 2026-05-06 15:53 | 41.92513 | 8.66221 | 4830 ft | 217 kts | 336° |
| 2026-05-06 15:53 | 41.93919 | 8.65420 | 4824 ft | 218 kts | 335° |
| 2026-05-06 15:53 | 41.95284 | 8.64532 | 4692 ft | 225 kts | 331° |
| 2026-05-06 15:53 | 41.96667 | 8.63521 | 4359 ft | 228 kts | 329° |
| 2026-05-06 15:54 | 41.98057 | 8.62459 | 4007 ft | 231 kts | 329° |
| 2026-05-06 15:54 | 41.99523 | 8.61656 | 3622 ft | 237 kts | 355° |
| 2026-05-06 15:54 | 42.01136 | 8.62236 | 3511 ft | 251 kts | 35° |
| 2026-05-06 15:54 | 42.02187 | 8.64069 | 3551 ft | 246 kts | 70° |
| 2026-05-06 15:55 | 42.02258 | 8.66211 | 3236 ft | 221 kts | 109° |
| 2026-05-06 15:55 | 42.01708 | 8.67950 | 3113 ft | 186 kts | 115° |
| 2026-05-06 15:55 | 42.01210 | 8.69396 | 3088 ft | 154 kts | 116° |
| 2026-05-06 15:55 | 42.00767 | 8.70664 | 3023 ft | 156 kts | 116° |
| 2026-05-06 15:56 | 42.00295 | 8.72013 | 2579 ft | 163 kts | 116° |
| 2026-05-06 15:56 | 41.99879 | 8.73461 | 1870 ft | 169 kts | 105° |
| 2026-05-06 15:56 | 41.99673 | 8.75032 | 1552 ft | 167 kts | 101° |
| 2026-05-06 15:56 | 41.99479 | 8.76541 | 1523 ft | 164 kts | 102° |
| 2026-05-06 15:57 | 41.99291 | 8.77972 | 1527 ft | 157 kts | 102° |
| 2026-05-06 15:57 | 41.99100 | 8.79407 | 1520 ft | 152 kts | 103° |
| 2026-05-06 15:57 | 41.98883 | 8.80833 | 1348 ft | 151 kts | 111° |
| 2026-05-06 15:57 | 41.98322 | 8.82005 | 1143 ft | 152 kts | 139° |
| 2026-05-06 15:58 | 41.97446 | 8.82670 | 933 ft | 148 kts | 165° |
| 2026-05-06 15:58 | 41.96456 | 8.82718 | 692 ft | 143 kts | 191° |
| 2026-05-06 15:58 | 41.95535 | 8.82232 | 478 ft | 138 kts | 205° |
| 2026-05-06 15:58 | 41.94637 | 8.81660 | 277 ft | 141 kts | 205° |
| 2026-05-06 15:59 | 41.93753 | 8.81087 | 180 ft | 144 kts | 205° |
| 2026-05-06 15:59 | 41.92848 | 8.80535 | 43 ft | 139 kts | 205° |
| 2026-05-06 15:59 | 41.92101 | 8.80070 | 20 ft | 84 kts | 205° |
| 2026-05-06 15:59 | 41.91704 | 8.79825 | 15 ft | 51 kts | 206° |
| 2026-05-06 16:00 | 41.91434 | 8.79655 | 18 ft | 39 kts | 205° |
| 2026-05-06 16:00 | 41.91236 | 8.79485 | 24 ft | 26 kts | 269° |
| 2026-05-06 16:00 | 41.91372 | 8.79352 | 27 ft | 24 kts | 338° |
| 2026-05-06 16:00 | 41.91529 | 8.79379 | 29 ft | 24 kts | 24° |
| 2026-05-06 16:01 | 41.91678 | 8.79469 | 28 ft | 24 kts | 25° |
| 2026-05-06 16:01 | 41.91807 | 8.79538 | 27 ft | 12 kts | 332° |
| 2026-05-06 16:01 | 41.91847 | 8.79505 | 28 ft | 0 kts | 346° |